Latest Coastal Weather Observations for Gove Airport

IDD60701

Issued at 6:31 pm CST Tuesday 24 January 2017 (issued every 10 minutes, with the page automatically refreshed every 10 minutes)

About coastal observations | Map of coastal stations | Coastal observations for NT | Marine services | Other Formats
Station Details ID: 014508 Name: GOVE AIRPORT Lat: -12.27 Lon: 136.82 Height: 51.6 m
Data from the previous 72 hours. | See also: Recent months at Gove Airport
Date/Time
CST
Temp
°C
Wind Pressure Rain since
9am
mm
Weather Cloud Vis
km
Sea
Height
m
Swell
Dir  Spd
kts
Gust
kts
hPa Trend Height
m
Period
s
Dir
24/06:30pm 26.1 NNE 5 8 1007.9 - 34.2 - Partly cloudy 10 - - - -
24/06:11pm 25.9 NNE 5 7 1007.8 - 34.2 - Partly cloudy 10 - - - -
24/06:00pm 25.8 NNE 5 7 1007.7 R 34.2 Recent precip. Cloudy 10 - - - -
24/05:34pm 25.3 NE 7 11 1007.7 - 34.2 - Partly cloudy 10 - - - -
24/05:30pm 25.3 NE 7 9 1007.7 - 34.2 - Partly cloudy 10 - - - -
24/05:00pm 25.4 N 10 13 1007.5 - 32.2 - Partly cloudy 0.7 - - - -
24/04:55pm 26.0 N 7 13 1007.6 - 30.4 - Partly cloudy 2 - - - -
24/04:30pm 27.0 NNW 8 10 1006.7 - 28.6 - Mostly clear 10 - - - -
24/04:00pm 26.8 NNW 8 11 1006.4 - 28.6 - Mostly clear 10 - - - -
24/03:41pm 26.3 NNW 7 9 1006.2 - 28.6 - Partly cloudy 10 - - - -
24/03:30pm 25.8 N 8 11 1006.2 - 28.6 - Mostly clear 10 - - - -
24/03:26pm 25.9 NNW 9 11 1006.1 - 28.6 - Mostly clear 10 - - - -
24/03:00pm 25.6 N 7 10 1006.4 F 26.6 Rain Mostly cloudy 2 - - - -
24/02:38pm 26.0 NW 8 11 1007.0 - 25.6 Rain Mostly clear 2 - - - -
24/02:30pm 26.1 NW 8 10 1007.0 - 25.4 - Mostly clear 10 - - - -
24/02:00pm 25.8 CALM 0 0 1007.4 - 24.8 Showers Mostly clear 4 - - - -
24/01:30pm 25.5 NNW 4 9 1007.7 - 24.4 - Mostly clear 10 - - - -
24/01:28pm 25.5 NNW 4 10 1007.8 - 24.4 Showers Mostly clear 10 - - - -
24/01:11pm 25.9 SW 1 6 1008.0 - 17.4 Showers Mostly clear 0.8 - - - -
24/01:00pm 25.8 CALM 0 3 1007.9 - 17.4 - Mostly clear 10 - - - -
24/12:30pm 25.1 NW 5 8 1008.0 - 17.4 - Mostly clear 10 - - - -
24/12:24pm 25.2 NW 5 7 1008.4 - 15.8 Rain Mostly clear 0.6 - - - -
24/12:21pm 25.1 WNW 5 7 1008.4 - 15.0 Rain Mostly clear 0.9 - - - -
24/12:09pm 25.3 WNW 7 11 1008.5 - 13.8 Rain Mostly clear 2 - - - -
24/12:00pm 25.3 WNW 5 9 1008.3 R 13.6 Rain Cloudy 0.5 - - - -
24/11:43am 25.7 NNW 1 4 1008.4 - 10.6 Showers Mostly clear 2 - - - -
24/11:30am 25.7 NW 1 3 1008.4 - 10.6 - Mostly clear 10 - - - -
24/11:00am 25.4 WNW 3 4 1008.6 - 10.6 - Mostly clear 10 - - - -
24/10:30am 25.1 WNW 4 7 1008.9 - 10.2 - Mostly clear 10 - - - -
24/10:10am 24.7 WNW 9 15 1009.0 - 10.2 Showers Mostly clear 10 - - - -
24/10:00am 24.8 WNW 10 18 1009.2 - 8.2 Showers Mostly clear 0.6 - - - -
24/09:54am 25.0 W 8 14 1009.2 - 3.8 Showers Mostly clear 0.7 - - - -
24/09:45am 26.0 SW 6 9 1009.2 - 0.0 Showers Mostly clear 2 - - - -
24/09:30am 26.1 SSW 3 5 1009.0 - 0.0 - Mostly clear 10 - - - -
24/09:00am 25.5 CALM 0 0 1009.0 R 36.2 - Partly cloudy 10 - - - -
24/08:30am 25.1 CALM 0 0 1008.9 - 36.2 - Mostly clear 10 - - - -
24/08:00am 24.8 CALM 0 2 1008.5 - 36.2 - Mostly clear 10 - - - -
24/07:48am 24.7 N 2 3 1008.7 - 36.2 Showers Mostly clear 3 - - - -
24/07:30am 24.6 N 3 4 1008.6 - 36.0 - Mostly clear 10 - - - -
24/07:05am 24.5 CALM 0 0 1008.1 - 35.6 - Partly cloudy 6 - - - -
24/07:00am 24.4 CALM 0 0 1008.0 - 35.6 - Partly cloudy 10 - - - -
24/06:45am 24.5 NNE 2 4 1007.6 - 35.6 - Partly cloudy 10 - - - -
24/06:30am 24.4 WNW 3 5 1007.4 - 35.6 - Partly cloudy 10 - - - -
24/06:28am 24.3 WNW 3 6 1007.3 - 35.6 - Partly cloudy 10 - - - -
24/06:00am 24.1 W 7 14 1007.0 R 33.6 Showers Cloudy 0.2 - - - -
24/05:52am 23.9 WNW 12 19 1007.0 - 26.6 - Partly cloudy 0.2 - - - -
24/05:43am 24.4 WNW 4 19 1006.9 - 13.2 - Partly cloudy 3 - - - -
24/05:30am 24.8 N 3 5 1006.2 - 11.8 - Partly cloudy 10 - - - -
24/05:00am 24.4 N 3 4 1005.7 - 11.8 - - 10 - - - -
24/04:30am 24.5 N 5 7 1005.9 - 11.8 - - 10 - - - -
24/04:00am 24.6 N 6 7 1005.9 - 11.8 - Partly cloudy 10 - - - -
24/03:59am 24.6 N 5 7 1005.9 - 11.8 - Partly cloudy 10 - - - -
24/03:30am 24.6 N 6 7 1006.3 - 11.2 - Partly cloudy 4 - - - -
24/03:25am 24.7 N 5 7 1006.3 - 11.2 - Partly cloudy 6 - - - -
24/03:00am 24.5 NNW 3 4 1006.1 F 11.2 - Partly cloudy 10 - - - -
24/02:30am 24.7 NW 5 6 1006.2 - 11.2 - - 10 - - - -
24/02:00am 24.7 WNW 4 6 1006.5 - 11.2 - Partly cloudy 10 - - - -
24/01:34am 24.8 WNW 6 9 1006.7 - 11.2 - Partly cloudy 10 - - - -
24/01:30am 24.9 WNW 7 14 1006.7 - 11.2 - Partly cloudy 10 - - - -
24/01:16am 25.0 NW 7 18 1007.0 - 11.2 - Partly cloudy 6 - - - -
24/01:00am 25.0 NW 6 10 1006.9 - 11.0 - Partly cloudy 10 - - - -
24/12:33am 24.8 WNW 5 7 1007.2 - 11.0 - Partly cloudy 10 - - - -
24/12:30am 24.8 WNW 5 9 1007.3 - 11.0 - Partly cloudy 10 - - - -
24/12:21am 24.8 W 5 9 1007.4 - 11.0 - Partly cloudy 9 - - - -
24/12:00am 25.1 WSW 6 12 1007.8 R 10.8 Rain Cloudy 2 - - - -
 
Date/Time
CST
Temp
°C
Wind Pressure Rain since
9am
mm
Weather Cloud Vis
km
Sea
Height
m
Swell
Dir  Spd
kts
Gust
kts
hPa Trend Height
m
Period
s
Dir
23/11:57pm 25.2 WSW 6 12 1007.8 - 10.0 - Partly cloudy 6 - - - -
23/11:55pm 25.3 WSW 5 7 1007.8 - 9.8 - Partly cloudy 9 - - - -
23/11:30pm 25.4 W 3 4 1007.9 - 9.4 - Partly cloudy 10 - - - -
23/11:00pm 25.5 WNW 3 5 1007.9 - 9.4 - Partly cloudy 10 - - - -
23/10:30pm 25.8 NW 6 7 1007.8 - 9.2 - - 10 - - - -
23/10:00pm 25.9 NW 8 11 1007.7 - 9.2 - - 10 - - - -
23/09:30pm 26.0 NW 7 10 1007.3 - 9.2 - - 10 - - - -
23/09:00pm 26.1 NW 10 14 1006.8 F 9.2 - Cloudy 10 - - - -
23/08:59pm 26.1 NW 10 15 1006.8 - 9.2 - Partly cloudy 10 - - - -
23/08:41pm 25.9 NW 8 12 1006.6 - 9.2 - Partly cloudy 10 - - - -
23/08:30pm 26.0 NW 10 16 1006.5 - 9.2 - Partly cloudy 10 - - - -
23/08:00pm 25.8 NW 9 14 1006.3 - 9.2 - Cloudy 10 - - - -
23/07:44pm 25.6 NW 9 15 1006.2 - 9.2 - Partly cloudy 10 - - - -
23/07:30pm 25.4 NW 9 13 1006.0 - 9.2 - Partly cloudy 10 - - - -
23/07:15pm 25.3 NW 9 15 1005.9 - 9.0 - Partly cloudy 10 - - - -
23/07:00pm 25.2 NW 9 12 1005.8 - 9.0 - Partly cloudy 10 - - - -
23/06:51pm 25.2 NW 8 12 1005.7 - 9.0 - Partly cloudy 10 - - - -
23/06:37pm 25.2 NW 8 11 1005.6 - 9.0 - Partly cloudy 9 - - - -
23/06:32pm 25.2 NW 9 12 1005.5 - 9.0 - Partly cloudy 8 - - - -
23/06:30pm 25.2 NW 9 13 1005.5 - 9.0 - Partly cloudy 8 - - - -
23/06:22pm 25.3 NW 10 15 1005.5 - 9.0 - Partly cloudy 7 - - - -
23/06:00pm 25.5 NNW 12 17 1005.4 R 8.6 Rain Cloudy 5 - - - -
23/05:30pm 25.2 NNW 12 16 1005.3 - 7.8 - Partly cloudy 5 - - - -
23/05:20pm 25.1 NW 12 18 1005.1 - 7.6 - Partly cloudy 5 - - - -
23/05:09pm 25.0 NW 11 15 1004.9 - 7.4 - Partly cloudy 6 - - - -
23/05:00pm 25.1 NW 12 15 1004.7 - 7.2 - Partly cloudy 9 - - - -
23/04:52pm 25.3 NW 13 17 1004.6 - 6.8 - Partly cloudy 10 - - - -
23/04:30pm 26.4 NNW 14 19 1004.3 - 6.8 - Partly cloudy 10 - - - -
23/04:21pm 26.8 NNW 11 15 1004.2 - 6.8 - Mostly cloudy 10 - - - -
23/04:00pm 27.0 NW 12 18 1004.2 - 6.8 - Partly cloudy 10 - - - -
23/03:46pm 26.8 NNW 9 14 1004.1 - 6.8 Showers Mostly clear 10 - - - -
23/03:30pm 26.1 NNW 11 15 1004.2 - 6.8 - Mostly clear 3 - - - -
23/03:14pm 26.3 NNW 13 19 1004.2 - 6.2 Showers Mostly clear 2 - - - -
23/03:00pm 27.6 NNW 11 15 1004.2 F 5.8 Showers Cloudy 10 - - - -
23/02:30pm 26.9 NNE 6 11 1004.3 - 5.8 - Mostly clear 10 - - - -
23/02:00pm 26.9 NNE 8 9 1004.8 - 5.8 - Mostly clear 10 - - - -
23/01:30pm 26.7 CALM 0 0 1005.4 - 5.8 - Mostly clear 10 - - - -
23/01:24pm 26.5 SE 1 4 1005.4 - 5.8 Showers Mostly clear 10 - - - -
23/01:03pm 26.8 N 6 8 1005.7 - 3.4 Showers Partly cloudy 2 - - - -
23/01:00pm 27.1 N 6 8 1005.8 - 3.4 Showers Mostly clear 8 - - - -
23/12:30pm 26.9 N 7 9 1006.2 - 3.4 - Mostly clear 10 - - - -
23/12:00pm 26.2 N 7 9 1006.2 R 3.4 Rain Cloudy 5 - - - -
23/11:44am 26.4 N 6 8 1006.3 - 2.8 Rain Partly cloudy 2 - - - -
23/11:30am 26.6 N 7 9 1006.6 - 2.8 - Partly cloudy 10 - - - -
23/11:18am 26.6 N 7 10 1006.7 - 2.8 Rain Mostly cloudy 10 - - - -
23/11:00am 26.5 NNW 7 9 1006.7 - 2.8 Rain Partly cloudy 10 - - - -
23/10:30am 25.8 NW 6 8 1006.8 - 2.8 - Mostly clear 10 - - - -
23/10:15am 25.4 NNW 8 10 1007.0 - 2.8 Rain Mostly clear 8 - - - -
23/10:00am 25.2 NNW 9 11 1007.1 - 2.6 Rain Mostly clear 3 - - - -
23/09:30am 25.4 NW 9 11 1006.9 - 0.4 - Mostly clear 2 - - - -
23/09:16am 25.6 NW 9 13 1007.2 - 0.0 Rain Mostly clear 4 - - - -
23/09:00am 25.9 NNW 9 11 1007.0 F 15.0 Rain Cloudy 10 - - - -
23/08:30am 25.6 NNW 3 5 1006.2 - 15.0 - Mostly clear 10 - - - -
23/08:00am 25.2 NW 5 6 1006.4 - 15.0 - Mostly clear 10 - - - -
23/07:30am 24.8 W 5 6 1006.2 - 15.0 - Partly cloudy 10 - - - -
23/07:12am 24.8 W 6 10 1006.1 - 15.0 - Partly cloudy 10 - - - -
23/07:00am 24.7 W 4 6 1006.3 - 15.0 - Partly cloudy 5 - - - -
23/06:30am 24.7 W 7 12 1005.8 - 14.4 - Partly cloudy 2 - - - -
23/06:00am 24.4 WNW 7 10 1005.5 R 13.2 Rain Cloudy 2 - - - -
23/05:52am 24.5 WNW 7 12 1005.3 - 12.4 - Partly cloudy 2 - - - -
23/05:30am 24.7 NW 9 14 1005.3 - 10.4 - Partly cloudy 2 - - - -
23/05:26am 24.7 NW 10 14 1005.2 - 10.2 - Partly cloudy 2 - - - -
23/05:13am 24.9 NW 7 9 1005.0 - 9.8 - Partly cloudy 6 - - - -
23/05:07am 24.9 NW 6 9 1004.9 - 9.8 - Partly cloudy 10 - - - -
23/05:00am 24.9 WNW 6 9 1004.8 - 9.8 - Partly cloudy 9 - - - -
23/04:47am 25.0 NW 8 13 1004.6 - 9.8 - Partly cloudy 3 - - - -
23/04:30am 25.1 NW 8 12 1004.5 - 9.6 - Partly cloudy 2 - - - -
23/04:10am 25.5 WNW 7 11 1004.5 - 9.4 - Partly cloudy 6 - - - -
23/04:00am 25.6 WNW 8 15 1004.6 - 9.4 - Cloudy 10 - - - -
23/03:30am 25.5 NW 9 14 1004.6 - 9.4 - Partly cloudy 10 - - - -
23/03:17am 25.5 NW 9 18 1004.6 - 9.4 - Partly cloudy 10 - - - -
23/03:00am 25.6 NW 12 19 1004.5 F 9.4 - Cloudy 5 - - - -
23/02:53am 25.6 NW 8 14 1004.5 - 9.4 - Partly cloudy 6 - - - -
23/02:30am 25.4 NW 8 11 1004.7 - 9.4 - Partly cloudy 10 - - - -
23/02:21am 25.3 NW 8 13 1004.8 - 9.4 - Partly cloudy 10 - - - -
23/02:00am 25.2 NW 8 11 1005.0 - 9.4 - Partly cloudy 5 - - - -
23/01:57am 25.2 NW 8 11 1005.1 - 9.4 - Partly cloudy 6 - - - -
23/01:54am 25.2 NW 8 11 1005.1 - 9.4 - Partly cloudy 10 - - - -
23/01:30am 25.2 NW 13 21 1005.3 - 9.4 - Partly cloudy 5 - - - -
23/01:19am 25.3 NW 9 13 1005.6 - 9.2 - Partly cloudy 6 - - - -
23/01:00am 25.4 NW 7 10 1005.8 - 9.2 - Partly cloudy 10 - - - -
23/12:59am 25.4 NW 8 10 1005.8 - 9.2 - Partly cloudy 10 - - - -
23/12:43am 25.3 NW 10 15 1006.1 - 9.2 - Partly cloudy 10 - - - -
23/12:32am 25.5 NW 13 21 1006.4 - 9.2 - Partly cloudy 6 - - - -
23/12:30am 25.6 NW 12 21 1006.4 - 9.2 - Partly cloudy 7 - - - -
23/12:00am 25.3 NW 7 12 1006.7 F 9.2 Recent precip. Cloudy 10 - - - -
 
Date/Time
CST
Temp
°C
Wind Pressure Rain since
9am
mm
Weather Cloud Vis
km
Sea
Height
m
Swell
Dir  Spd
kts
Gust
kts
hPa Trend Height
m
Period
s
Dir
22/11:56pm 25.2 NW 7 12 1006.7 - 9.2 - Partly cloudy 10 - - - -
22/11:46pm 25.0 WNW 5 8 1007.0 - 9.2 - Partly cloudy 10 - - - -
22/11:42pm 25.0 WNW 4 7 1007.1 - 9.2 - Partly cloudy 10 - - - -
22/11:40pm 25.0 WNW 4 7 1007.1 - 9.2 - Partly cloudy 10 - - - -
22/11:30pm 25.0 W 5 8 1007.5 - 9.2 - Partly cloudy 6 - - - -
22/11:00pm 25.1 NW 15 20 1008.2 - 5.0 - Partly cloudy 3 - - - -
22/10:43pm 25.7 NW 9 14 1008.3 - 3.6 - Partly cloudy 4 - - - -
22/10:30pm 25.6 NW 10 16 1008.0 - 3.0 - Partly cloudy 10 - - - -
22/10:00pm 24.9 NW 11 17 1007.6 - 3.0 - Partly cloudy 9 - - - -
22/09:30pm 24.6 NW 13 18 1007.3 - 3.0 - Partly cloudy 10 - - - -
22/09:10pm 24.5 NW 13 21 1007.1 - 3.0 - Partly cloudy 10 - - - -
22/09:06pm 24.5 NW 15 25 1007.1 - 3.0 - Partly cloudy 10 - - - -
22/09:00pm 24.6 NW 16 25 1007.2 F 3.0 Recent precip. Cloudy 6 - - - -
22/08:45pm 24.7 NW 16 26 1007.2 - 3.0 - Partly cloudy 3 - - - -
22/08:33pm 25.5 NW 12 17 1007.4 - 2.2 - Partly cloudy 4 - - - -
22/08:32pm 25.8 NNW 12 15 1007.4 - 2.0 - Partly cloudy 6 - - - -
22/08:30pm 25.9 NNW 13 16 1007.2 - 1.4 - Partly cloudy 9 - - - -
22/08:18pm 26.0 NNW 13 18 1007.2 - 1.4 - Partly cloudy 7 - - - -
22/08:00pm 25.8 NW 8 13 1007.2 - 1.0 - Partly cloudy 8 - - - -
22/07:50pm 25.5 WNW 6 9 1007.1 - 1.0 - Cloudy 7 - - - -
22/07:30pm 26.1 NW 9 15 1007.1 - 0.8 - Partly cloudy 10 - - - -
22/07:00pm 26.9 NNW 11 15 1007.2 - 0.8 - Partly cloudy 10 - - - -
22/06:30pm 27.1 N 11 15 1007.0 - 0.8 - Partly cloudy 10 - - - -
22/06:00pm 27.1 N 9 12 1007.0 R 0.8 - Cloudy 10 - - - -
22/05:30pm 27.3 NNW 9 13 1007.0 - 0.8 - Partly cloudy 10 - - - -
22/05:00pm 27.4 N 11 16 1006.7 - 0.8 - Partly cloudy 10 - - - -
22/04:30pm 27.6 N 14 20 1006.2 - 0.8 - Partly cloudy 10 - - - -
22/04:00pm 27.5 NNW 16 23 1006.2 - 0.8 - Partly cloudy 10 - - - -
22/03:30pm 27.8 N 15 21 1006.3 - 0.8 - Partly cloudy 10 - - - -
22/03:00pm 28.2 NNW 15 22 1006.2 F 0.8 - Cloudy 10 - - - -
22/02:30pm 27.7 N 17 25 1006.5 - 0.8 - Partly cloudy 10 - - - -
22/02:25pm 27.7 N 16 25 1006.6 - 0.8 - Cloudy 10 - - - -
22/02:04pm 27.2 N 17 24 1006.8 - 0.8 - Partly cloudy 10 - - - -
22/02:00pm 27.1 N 14 23 1006.9 - 0.8 - Partly cloudy 10 - - - -
22/01:43pm 26.9 N 19 27 1006.8 - 0.6 - Partly cloudy 5 - - - -
22/01:30pm 28.3 N 17 23 1007.0 - 0.4 - Partly cloudy 10 - - - -
22/01:21pm 29.1 N 17 24 1007.0 - 0.4 - Partly cloudy 10 - - - -
22/01:07pm 27.1 N 18 25 1007.2 - 0.4 - Partly cloudy 3 - - - -
22/01:02pm 27.2 N 17 22 1007.4 - 0.4 - Partly cloudy 4 - - - -
22/01:00pm 27.6 N 16 22 1007.5 - 0.0 - Partly cloudy 10 - - - -
22/12:30pm 29.0 N 15 21 1008.0 - 0.0 - Partly cloudy 10 - - - -
22/12:00pm 29.5 N 12 16 1008.2 F 0.0 - Cloudy 10 - - - -
22/11:30am 30.3 NW 9 15 1008.4 - 0.0 - Partly cloudy 10 - - - -
22/11:00am 29.4 NNW 10 13 1008.8 - 0.0 - Partly cloudy 10 - - - -
22/10:30am 29.4 NNW 11 15 1009.3 - 0.0 - Partly cloudy 10 - - - -
22/10:00am 29.0 NW 9 13 1009.8 - 0.0 - Partly cloudy 10 - - - -
22/09:30am 28.9 NW 9 13 1009.9 - 0.0 - Partly cloudy 10 - - - -
22/09:00am 28.7 WNW 8 11 1009.6 F 6.0 - Mostly cloudy 10 - - - -
22/08:30am 28.1 NW 9 13 1009.7 - 6.0 - Mostly clear 10 - - - -
22/08:00am 27.7 NW 9 13 1009.4 - 6.0 - - 10 - - - -
22/07:30am 27.1 WNW 6 10 1009.0 - 6.0 - - 10 - - - -
22/07:00am 26.2 NW 5 7 1008.7 - 6.0 - Partly cloudy 10 - - - -
22/06:30am 25.9 NW 5 7 1008.7 - 6.0 - Partly cloudy 10 - - - -
22/06:00am 25.9 NW 5 6 1008.2 S 6.0 - Partly cloudy 10 - - - -
22/05:30am 25.9 NW 5 8 1007.8 - 6.0 - - 10 - - - -
22/05:00am 25.9 WNW 6 9 1007.3 - 6.0 - - 10 - - - -
22/04:30am 25.8 WNW 6 9 1007.2 - 6.0 - Partly cloudy 10 - - - -
22/04:00am 25.8 WNW 5 10 1007.0 - 6.0 - Partly cloudy 10 - - - -
22/03:56am 25.8 WNW 5 8 1007.1 - 6.0 - Partly cloudy 10 - - - -
22/03:30am 25.7 NW 6 9 1007.2 - 6.0 - Partly cloudy 10 - - - -
22/03:00am 25.9 NW 9 15 1007.5 F 6.0 - Cloudy 10 - - - -
22/02:55am 25.9 NW 9 12 1007.6 - 6.0 - Partly cloudy 10 - - - -
22/02:30am 25.8 NW 7 10 1007.8 - 6.0 - Partly cloudy 10 - - - -
22/02:00am 25.7 NW 6 9 1008.2 - 6.0 - Cloudy 10 - - - -
22/01:30am 25.7 NW 8 10 1009.0 - 6.0 - Cloudy 10 - - - -
22/01:00am 25.6 NW 7 10 1009.3 - 6.0 - Partly cloudy 10 - - - -
22/12:47am 25.6 NW 8 13 1009.3 - 6.0 - Partly cloudy 10 - - - -
22/12:30am 25.8 NW 9 13 1009.5 - 6.0 - Partly cloudy 10 - - - -
22/12:19am 25.8 NW 8 13 1009.5 - 6.0 - Partly cloudy 10 - - - -
22/12:00am 26.0 WNW 9 13 1009.5 S 6.0 - Cloudy 10 - - - -
 
Date/Time
CST
Temp
°C
Wind Pressure Rain since
9am
mm
Weather Cloud Vis
km
Sea
Height
m
Swell
Dir  Spd
kts
Gust
kts
hPa Trend Height
m
Period
s
Dir
21/11:30pm 25.9 NW 7 9 1009.8 - 6.0 - Partly cloudy 10 - - - -
21/11:00pm 25.5 WNW 6 9 1009.9 - 6.0 - - 10 - - - -
21/10:30pm 25.3 NW 7 11 1009.7 - 6.0 - Partly cloudy 10 - - - -
21/10:00pm 25.1 NW 7 8 1009.6 - 6.0 - Cloudy 10 - - - -
21/09:30pm 24.8 WNW 6 8 1009.8 - 5.8 - - 9 - - - -
21/09:00pm 25.3 NW 7 9 1009.3 F 5.4 Rain Cloudy 8 - - - -
21/08:30pm 25.2 WNW 5 8 1009.1 - 4.8 - - 8 - - - -
21/08:00pm 25.6 WNW 7 10 1009.0 - 4.4 - Partly cloudy 10 - - - -
21/07:30pm 26.3 WSW 5 9 1008.8 - 4.2 - Partly cloudy 10 - - - -
21/07:00pm 26.2 SW 4 7 1008.5 - 4.2 - Partly cloudy 10 - - - -

Other Formats:

Comma delimited format used in spreadsheet applications
http://www.bom.gov.au/fwo/IDD60701/IDD60701.94150.axf

JavaScript Object Notation format (JSON) in row-major order
http://www.bom.gov.au/fwo/IDD60701/IDD60701.94150.json